createdAt,value
2023-03-04T00:04:22.758Z,29.77
2023-03-04T00:09:45.862Z,27.88
2023-03-04T00:15:08.345Z,24.55
2023-03-04T00:20:30.190Z,26.30
2023-03-04T00:25:52.062Z,25.85
2023-03-04T00:31:13.912Z,25.65
2023-03-04T00:36:35.792Z,25.25
2023-03-04T00:41:57.689Z,27.33
2023-03-04T00:47:19.622Z,29.10
2023-03-04T00:52:41.622Z,29.55
2023-03-04T00:58:03.737Z,28.40
2023-03-04T01:03:25.745Z,31.88
2023-03-04T01:08:47.791Z,32.30
2023-03-04T01:14:10.003Z,30.85
2023-03-04T01:19:31.856Z,34.28
2023-03-04T01:24:53.730Z,36.35
2023-03-04T01:30:15.621Z,38.33
2023-03-04T01:35:37.546Z,32.05
2023-03-04T01:40:59.486Z,29.98
2023-03-04T01:46:21.529Z,30.20
2023-03-04T01:51:46.767Z,37.28
2023-03-04T01:57:26.261Z,35.28
2023-03-04T02:02:51.737Z,33.28
2023-03-04T02:08:15.185Z,32.60
2023-03-04T02:13:37.239Z,34.67
2023-03-04T02:18:59.740Z,33.53
2023-03-04T02:24:32.685Z,34.00
2023-03-04T02:29:54.789Z,32.60
2023-03-04T02:35:18.819Z,31.20
2023-03-04T02:40:46.124Z,30.45
2023-03-04T02:46:12.551Z,29.88
2023-03-04T02:56:59.687Z,34.72
2023-03-04T03:02:21.552Z,37.13
2023-03-04T03:07:43.501Z,33.63
2023-03-04T03:13:05.397Z,31.45
2023-03-04T03:18:27.244Z,32.92
2023-03-04T03:23:49.556Z,32.53
2023-03-04T03:29:11.577Z,33.70
2023-03-04T03:34:33.407Z,33.90
2023-03-04T03:39:55.291Z,30.25
2023-03-04T03:45:17.209Z,33.60
2023-03-04T03:50:39.092Z,31.30
2023-03-04T03:56:00.979Z,31.40
2023-03-04T04:01:22.858Z,31.73
2023-03-04T04:06:44.767Z,30.88
2023-03-04T04:12:07.297Z,32.47
2023-03-04T04:17:29.137Z,29.30
2023-03-04T04:22:51.024Z,29.83
2023-03-04T04:28:12.957Z,31.13
2023-03-04T04:33:35.631Z,33.88
2023-03-04T04:38:57.582Z,28.40
2023-03-04T04:44:19.446Z,29.73
2023-03-04T04:49:41.292Z,30.10
2023-03-04T04:55:03.892Z,24.38
2023-03-04T05:00:25.883Z,30.05
2023-03-04T05:05:48.674Z,27.25
2023-03-04T05:11:10.565Z,26.13
2023-03-04T05:16:32.468Z,27.23
2023-03-04T05:21:54.415Z,26.90
2023-03-04T05:27:16.253Z,28.35
2023-03-04T05:32:38.291Z,27.80
2023-03-04T05:38:00.130Z,30.27
2023-03-04T05:43:22.032Z,27.25
2023-03-04T05:48:44.785Z,28.17
2023-03-04T05:54:06.627Z,27.50
2023-03-04T05:59:28.795Z,27.05
2023-03-04T06:04:50.685Z,24.20
2023-03-04T06:10:15.156Z,23.52
2023-03-04T06:15:37.966Z,22.88
2023-03-04T06:21:02.284Z,23.38
2023-03-04T06:26:24.123Z,20.92
2023-03-04T06:31:46.067Z,20.15
2023-03-04T06:37:07.904Z,22.42
2023-03-04T06:42:29.831Z,24.50
2023-03-04T06:47:51.677Z,22.77
2023-03-04T06:53:13.538Z,23.33
2023-03-04T06:58:35.472Z,23.10
2023-03-04T07:03:57.892Z,21.25
2023-03-04T07:09:19.949Z,22.20
2023-03-04T07:14:41.915Z,23.02
2023-03-04T07:20:05.136Z,19.73
2023-03-04T07:25:27.051Z,22.98
2023-03-04T07:30:48.949Z,22.08
2023-03-04T07:36:10.840Z,22.65
2023-03-04T07:41:33.154Z,21.10
2023-03-04T07:46:55.008Z,20.13
2023-03-04T07:52:17.014Z,22.77
2023-03-04T07:57:40.001Z,18.13
2023-03-04T08:03:01.887Z,23.85
2023-03-04T08:08:23.818Z,21.55
2023-03-04T08:13:46.351Z,20.67
2023-03-04T08:19:08.661Z,18.35
2023-03-04T08:24:30.538Z,21.77
2023-03-04T08:29:52.439Z,17.13
2023-03-04T08:35:14.324Z,21.20
2023-03-04T08:40:36.144Z,21.55
2023-03-04T08:45:58.206Z,15.82
2023-03-04T08:51:20.363Z,18.65
2023-03-04T08:56:42.289Z,20.17
2023-03-04T09:02:04.281Z,19.15
2023-03-04T09:07:26.199Z,18.75
2023-03-04T09:12:48.042Z,19.55
2023-03-04T09:18:09.939Z,20.63
2023-03-04T09:23:31.822Z,17.67
2023-03-04T09:28:59.194Z,20.75
2023-03-04T09:34:21.021Z,18.08
2023-03-04T09:39:42.832Z,18.15
2023-03-04T09:45:08.318Z,19.52
2023-03-04T09:50:34.328Z,14.35
2023-03-04T09:55:56.377Z,19.75
2023-03-04T10:01:31.254Z,20.60
2023-03-04T10:06:53.414Z,22.00
2023-03-04T10:12:20.429Z,20.98
2023-03-04T10:17:46.995Z,23.15
2023-03-04T10:23:11.612Z,18.70
2023-03-04T10:28:35.384Z,20.00
2023-03-04T10:33:57.286Z,19.90
2023-03-04T10:39:22.975Z,17.13
2023-03-04T10:44:53.681Z,17.40
2023-03-04T10:50:28.356Z,20.10
2023-03-04T10:55:50.326Z,17.70
2023-03-04T11:01:16.132Z,17.35
2023-03-04T11:06:41.074Z,20.77
2023-03-04T11:12:09.722Z,19.55
2023-03-04T11:17:47.170Z,18.25
2023-03-04T11:28:39.708Z,22.73
2023-03-04T11:34:07.932Z,18.75
2023-03-04T11:39:35.859Z,20.25
2023-03-04T11:44:57.792Z,20.48
2023-03-04T11:50:31.625Z,18.98
2023-03-04T11:56:05.424Z,17.80
2023-03-04T12:01:37.938Z,18.92
2023-03-04T12:07:03.719Z,21.38
2023-03-04T12:12:33.183Z,17.38
2023-03-04T12:17:58.185Z,15.10
2023-03-04T12:23:28.916Z,15.00
2023-03-04T12:28:55.762Z,14.25
2023-03-04T12:34:33.203Z,16.40
2023-03-04T12:40:00.809Z,17.98
2023-03-04T12:45:32.842Z,14.70
2023-03-04T12:50:57.715Z,17.85
2023-03-04T12:56:39.459Z,11.23
2023-03-04T13:02:29.681Z,15.38
2023-03-04T13:08:13.084Z,10.77
2023-03-04T13:13:41.474Z,12.73
2023-03-04T13:19:03.393Z,10.55
2023-03-04T13:24:45.068Z,12.48
2023-03-04T13:30:32.428Z,10.25
2023-03-04T13:35:57.250Z,10.57
2023-03-04T13:41:23.957Z,9.90
2023-03-04T13:46:45.998Z,7.28
2023-03-04T13:52:42.466Z,7.20
2023-03-04T13:58:26.654Z,6.85
2023-03-04T14:03:48.674Z,3.75
2023-03-04T14:09:20.030Z,3.85
2023-03-04T14:14:44.469Z,7.78
2023-03-04T14:20:41.855Z,7.38
2023-03-04T14:26:18.331Z,6.63
2023-03-04T14:31:40.263Z,9.45
2023-03-04T14:37:03.581Z,5.38
2023-03-04T14:42:36.099Z,5.80
2023-03-04T14:48:04.905Z,8.18
2023-03-04T14:53:29.864Z,6.13
2023-03-04T14:58:54.937Z,6.07
2023-03-04T15:04:19.584Z,5.57
2023-03-04T15:09:41.917Z,5.82
2023-03-04T15:15:50.214Z,6.55
2023-03-04T15:21:21.158Z,7.90
2023-03-04T15:26:44.019Z,3.60
2023-03-04T15:32:05.918Z,4.15
2023-03-04T15:37:29.377Z,3.75
2023-03-04T15:42:51.560Z,4.03
2023-03-04T15:48:15.706Z,2.85
2023-03-04T15:53:40.664Z,5.63
2023-03-04T15:59:14.516Z,4.70
2023-03-04T16:04:36.355Z,5.35
2023-03-04T16:10:05.150Z,4.05
2023-03-04T16:15:29.347Z,4.45
2023-03-04T16:20:51.535Z,3.72
2023-03-04T16:26:16.248Z,3.92
2023-03-04T16:31:38.294Z,3.17
2023-03-04T16:37:06.732Z,3.83
2023-03-04T16:42:28.640Z,3.33
2023-03-04T16:47:51.262Z,3.35
2023-03-04T16:53:24.977Z,4.20
2023-03-04T16:58:47.058Z,2.47
2023-03-04T17:04:08.900Z,3.97
2023-03-04T17:09:30.778Z,3.33
2023-03-04T17:14:52.715Z,4.90
2023-03-04T17:20:17.695Z,2.55
2023-03-04T17:25:39.857Z,4.15
2023-03-04T17:31:01.934Z,3.55
2023-03-04T17:36:23.822Z,4.20
2023-03-04T17:41:45.745Z,3.08
2023-03-04T17:47:08.220Z,3.15
2023-03-04T17:52:30.045Z,4.18
2023-03-04T17:57:51.848Z,3.92
2023-03-04T18:03:14.251Z,6.55
2023-03-04T18:08:36.068Z,4.97
2023-03-04T18:13:57.947Z,5.60
2023-03-04T18:19:19.829Z,6.50
2023-03-04T18:24:41.666Z,7.07
2023-03-04T18:30:03.794Z,3.08
2023-03-04T18:35:26.115Z,5.22
2023-03-04T18:40:47.984Z,5.60
2023-03-04T18:46:18.638Z,9.15
2023-03-04T18:51:40.542Z,6.05
2023-03-04T18:57:09.356Z,2.53
2023-03-04T19:02:43.186Z,3.90
2023-03-04T19:08:05.038Z,5.88
2023-03-04T19:13:29.490Z,5.60
2023-03-04T19:18:52.756Z,5.77
2023-03-04T19:24:14.633Z,6.40
2023-03-04T19:29:36.581Z,5.25
2023-03-04T19:34:58.415Z,5.28
2023-03-04T19:40:20.794Z,5.10
2023-03-04T19:45:42.661Z,6.43
2023-03-04T19:51:13.136Z,6.88
2023-03-04T19:56:35.020Z,5.70
2023-03-04T20:01:56.825Z,7.35
2023-03-04T20:07:18.635Z,6.30
2023-03-04T20:12:40.481Z,6.97
2023-03-04T20:18:04.729Z,6.18
2023-03-04T20:23:29.183Z,4.63
2023-03-04T20:28:51.538Z,4.53
2023-03-04T20:34:14.207Z,7.13
2023-03-04T20:39:36.079Z,10.63
2023-03-04T20:44:57.947Z,6.25
2023-03-04T20:50:19.906Z,4.50
2023-03-04T20:55:41.707Z,6.15
2023-03-04T21:01:03.669Z,5.93
2023-03-04T21:06:25.849Z,6.78
2023-03-04T21:11:48.382Z,9.15
2023-03-04T21:17:10.935Z,6.35
2023-03-04T21:22:32.794Z,7.53
2023-03-04T21:27:54.660Z,6.72
2023-03-04T21:33:18.510Z,5.60
2023-03-04T21:38:42.192Z,7.03
2023-03-04T21:44:04.095Z,8.30
2023-03-04T21:49:26.489Z,6.90
2023-03-04T21:54:48.684Z,7.03
2023-03-04T22:00:11.238Z,7.80
2023-03-04T22:05:33.140Z,6.50
2023-03-04T22:10:55.033Z,6.75
2023-03-04T22:16:16.891Z,6.63
2023-03-04T22:21:38.754Z,9.80
2023-03-04T22:27:00.893Z,8.73
2023-03-04T22:32:22.760Z,6.05
2023-03-04T22:37:45.250Z,9.07
2023-03-04T22:43:07.165Z,4.05
2023-03-04T22:48:29.100Z,6.13
2023-03-04T22:53:51.331Z,6.40
2023-03-04T22:59:13.766Z,5.55
2023-03-04T23:04:35.655Z,9.50
2023-03-04T23:09:57.536Z,6.03
2023-03-04T23:15:19.972Z,8.48
2023-03-04T23:20:41.838Z,9.32
2023-03-04T23:26:04.445Z,5.35
2023-03-04T23:31:26.357Z,5.30
2023-03-04T23:36:48.226Z,8.88
2023-03-04T23:42:10.099Z,5.95
2023-03-04T23:47:31.953Z,7.75
2023-03-04T23:52:53.794Z,7.10
2023-03-04T23:58:15.819Z,6.57
